Time;durP1;ratioP1;P1;durP2;ratioP2;P2;SDS_P1;SDS_P2;PMS_P1;PMS_P2;Temp;Humidity;BMP_temperature;BMP_pressure;BME280_temperature;BME280_humidity;BME280_pressure;Samples;Min_cycle;Max_cycle;Signal;HPM_P1;HPM_P2
2023/03/02 00:01:53;;;;;;;5.55;4.03;;;;;;;7.06;71.17;94941.63;4212728;28;20834;-58
2023/03/02 00:03:57;;;;;;;5.68;4.57;;;;;;;7.06;70.94;94940.81;4212961;28;20055;-56
2023/03/02 00:05:59;;;;;;;6.88;4.70;;;;;;;7.06;70.69;94940.81;4213280;28;20040;-56
2023/03/02 00:08:02;;;;;;;6.22;4.75;;;;;;;7.04;71.09;94945.31;4190249;28;20045;-57
2023/03/02 00:10:04;;;;;;;5.45;4.57;;;;;;;7.05;70.96;94937.34;4199732;28;20043;-57
2023/03/02 00:12:09;;;;;;;5.63;3.80;;;;;;;7.07;70.89;94942.44;4194435;28;20053;-58
2023/03/02 00:14:11;;;;;;;6.93;3.83;;;;;;;7.05;70.86;94936.53;4186726;28;20040;-57
2023/03/02 00:16:22;;;;;;;6.30;4.43;;;;;;;7.06;70.65;94931.22;4213927;28;20071;-57
2023/03/02 00:18:33;;;;;;;5.05;3.90;;;;;;;7.08;70.55;94934.50;4211647;28;20492;-60
2023/03/02 00:20:34;;;;;;;7.68;4.32;;;;;;;7.12;70.63;94929.84;4186090;28;20059;-59
2023/03/02 00:22:37;;;;;;;4.95;3.58;;;;;;;7.11;70.40;94923.00;4212889;28;20044;-60
2023/03/02 00:24:39;;;;;;;4.75;3.58;;;;;;;7.04;70.51;94911.47;4202890;28;20048;-58
2023/03/02 00:26:41;;;;;;;4.40;3.30;;;;;;;7.01;70.37;94917.72;4198690;28;20417;-55
2023/03/02 00:28:43;;;;;;;5.45;3.35;;;;;;;7.06;70.68;94923.38;4183749;28;20048;-55
2023/03/02 00:30:44;;;;;;;4.70;3.65;;;;;;;7.04;70.57;94921.88;4205200;28;20114;-52
2023/03/02 00:32:46;;;;;;;4.13;3.45;;;;;;;7.01;70.33;94916.91;4208470;28;20052;-54
2023/03/02 00:34:47;;;;;;;5.38;4.00;;;;;;;6.88;70.69;94912.78;4209353;28;20044;-55
2023/03/02 00:36:49;;;;;;;4.40;3.30;;;;;;;6.73;71.38;94904.50;4204345;28;20052;-54
2023/03/02 00:38:51;;;;;;;5.82;4.03;;;;;;;6.65;71.74;94906.91;4190298;28;20132;-55
2023/03/02 00:40:54;;;;;;;5.07;3.80;;;;;;;6.59;72.44;94906.63;4204590;28;20105;-53
2023/03/02 00:42:55;;;;;;;5.82;3.70;;;;;;;6.40;72.75;94905.53;4192997;28;20049;-56
2023/03/02 00:45:00;;;;;;;5.10;3.70;;;;;;;6.46;73.11;94912.03;4179996;28;20049;-51
2023/03/02 00:47:02;;;;;;;4.97;3.38;;;;;;;6.41;73.01;94907.22;4202564;28;20074;-52
2023/03/02 00:49:04;;;;;;;5.32;3.58;;;;;;;6.19;73.78;94896.94;4182192;28;20390;-55
2023/03/02 00:51:06;;;;;;;4.97;4.03;;;;;;;6.14;74.32;94903.34;4190047;28;20140;-53
2023/03/02 00:53:10;;;;;;;4.78;3.85;;;;;;;5.98;74.81;94896.91;4179470;28;20064;-54
2023/03/02 00:55:12;;;;;;;4.70;3.67;;;;;;;5.68;75.84;94903.66;4181687;28;20103;-51
2023/03/02 00:57:13;;;;;;;5.20;3.67;;;;;;;5.60;76.17;94896.47;4213133;28;20077;-56
2023/03/02 00:59:27;;;;;;;5.30;4.00;;;;;;;5.64;76.28;94897.06;4212978;28;20461;-55
2023/03/02 01:01:29;;;;;;;5.68;4.18;;;;;;;5.67;76.59;94889.81;4212844;28;20084;-55
2023/03/02 01:03:31;;;;;;;5.65;4.18;;;;;;;5.73;76.22;94884.13;4200320;28;20084;-57
2023/03/02 01:05:36;;;;;;;5.70;4.30;;;;;;;5.88;75.89;94876.84;4203999;28;20048;-52
2023/03/02 01:07:38;;;;;;;7.28;4.32;;;;;;;5.99;75.81;94878.59;4206164;28;20048;-53
2023/03/02 01:10:17;;;;;;;6.32;4.00;;;;;;;6.13;75.30;94874.84;4179721;28;20068;-55
2023/03/02 01:12:20;;;;;;;6.63;4.15;;;;;;;6.26;74.32;94872.88;4189195;28;20133;-59
2023/03/02 01:14:25;;;;;;;4.78;3.47;;;;;;;6.28;74.12;94865.78;4180049;28;20117;-61
2023/03/02 01:16:33;;;;;;;7.55;3.58;;;;;;;6.19;74.14;94873.53;4179821;28;20075;-54
2023/03/02 01:18:37;;;;;;;7.63;3.45;;;;;;;6.22;73.86;94862.88;4178161;28;20041;-53
2023/03/02 01:20:42;;;;;;;5.05;3.40;;;;;;;6.21;73.61;94863.81;4213067;28;20363;-53
2023/03/02 01:22:44;;;;;;;4.40;3.47;;;;;;;6.13;73.39;94869.63;4194551;28;20056;-54
2023/03/02 01:24:45;;;;;;;3.88;3.30;;;;;;;6.06;73.99;94877.13;4195859;28;20055;-55
2023/03/02 01:26:50;;;;;;;3.83;2.78;;;;;;;6.05;74.05;94874.69;4203730;28;20055;-53
2023/03/02 01:29:10;;;;;;;3.90;2.55;;;;;;;5.98;74.39;94866.56;4197389;28;20044;-52
2023/03/02 01:31:12;;;;;;;3.67;2.72;;;;;;;5.97;74.49;94872.69;4197201;28;20048;-53
2023/03/02 01:33:14;;;;;;;5.28;3.17;;;;;;;6.03;74.18;94880.00;4185270;28;20044;-54
2023/03/02 01:35:16;;;;;;;4.03;3.00;;;;;;;6.08;73.84;94875.22;4193346;28;20475;-51
2023/03/02 01:37:19;;;;;;;5.10;2.58;;;;;;;6.08;74.06;94872.63;4203654;28;20040;-52
2023/03/02 01:39:21;;;;;;;3.50;2.60;;;;;;;6.06;73.84;94865.91;4210617;28;20059;-53
2023/03/02 01:41:23;;;;;;;3.50;2.45;;;;;;;5.97;73.76;94862.28;4212486;28;20055;-54
2023/03/02 01:43:24;;;;;;;3.40;2.53;;;;;;;5.96;74.72;94868.47;4192444;28;20045;-51
2023/03/02 01:45:53;;;;;;;3.47;2.63;;;;;;;6.03;74.05;94867.00;4192448;28;20537;-53
2023/03/02 01:47:55;;;;;;;3.67;2.58;;;;;;;6.12;74.08;94862.81;4183923;28;20103;-52
2023/03/02 01:50:04;;;;;;;3.25;2.28;;;;;;;6.12;73.48;94858.41;4191843;28;20075;-54
2023/03/02 01:52:10;;;;;;;5.00;2.53;;;;;;;6.03;73.17;94859.19;4187876;28;20441;-54
2023/03/02 01:54:21;;;;;;;3.05;2.40;;;;;;;5.93;74.18;94853.88;4195701;28;20052;-52
2023/03/02 01:56:29;;;;;;;3.78;2.80;;;;;;;5.97;74.71;94861.47;4190352;28;20072;-55
2023/03/02 01:58:34;;;;;;;3.20;2.58;;;;;;;6.03;74.00;94854.00;4179072;28;20055;-50
2023/03/02 02:00:37;;;;;;;3.42;2.42;;;;;;;6.04;73.81;94853.03;4190063;28;20821;-51
2023/03/02 02:02:42;;;;;;;7.67;4.97;;;;;;;6.12;74.01;94848.00;4177358;28;20628;-58
2023/03/02 02:04:45;;;;;;;6.20;3.83;;;;;;;6.21;74.07;94845.59;4189890;28;20081;-55
2023/03/02 02:06:54;;;;;;;3.10;2.35;;;;;;;6.26;74.04;94841.66;4197643;28;20073;-58
2023/03/02 02:08:57;;;;;;;4.38;2.28;;;;;;;6.32;73.25;94848.97;4208432;28;20048;-55
2023/03/02 02:10:59;;;;;;;4.00;2.30;;;;;;;6.35;72.83;94850.47;4206763;28;20079;-57
2023/03/02 02:13:01;;;;;;;4.05;2.42;;;;;;;6.22;73.12;94853.28;4196287;28;20060;-56
2023/03/02 02:15:04;;;;;;;2.38;1.98;;;;;;;6.20;73.30;94849.97;4194201;28;20720;-57
2023/03/02 02:17:09;;;;;;;3.13;2.20;;;;;;;6.20;72.78;94841.38;4194665;28;20049;-58
2023/03/02 02:19:44;;;;;;;3.05;2.30;;;;;;;6.08;73.53;94841.41;4197175;28;20055;-57
2023/03/02 02:21:49;;;;;;;3.08;2.28;;;;;;;6.05;74.26;94859.88;4204762;28;20105;-58
2023/03/02 02:23:56;;;;;;;3.30;2.20;;;;;;;6.05;73.59;94859.88;4188311;28;20547;-57
2023/03/02 02:26:16;;;;;;;3.60;2.20;;;;;;;6.09;73.82;94855.25;4192387;28;20052;-58
2023/03/02 02:28:22;;;;;;;2.90;2.05;;;;;;;6.16;73.57;94851.19;4194835;28;20040;-59
2023/03/02 02:30:24;;;;;;;3.53;2.10;;;;;;;6.12;73.12;94844.59;4193882;28;20051;-59
2023/03/02 02:32:29;;;;;;;4.00;2.42;;;;;;;6.15;74.00;94846.94;4192874;28;20098;-57
2023/03/02 02:34:37;;;;;;;2.60;2.00;;;;;;;6.23;73.89;94848.91;4187514;28;20049;-58
2023/03/02 02:36:42;;;;;;;3.17;2.20;;;;;;;6.23;73.30;94851.50;4195582;28;20083;-59
2023/03/02 02:38:47;;;;;;;2.95;2.25;;;;;;;6.26;73.07;94843.41;4189570;28;20459;-56
2023/03/02 02:40:55;;;;;;;3.45;2.45;;;;;;;6.20;73.01;94844.78;4215638;28;20474;-57
2023/03/02 02:42:56;;;;;;;2.70;2.03;;;;;;;6.13;73.14;94849.69;4200693;28;20465;-58
2023/03/02 02:45:00;;;;;;;3.22;2.10;;;;;;;6.06;73.65;94848.53;4184615;28;20467;-59
2023/03/02 02:47:02;;;;;;;;;;;;;;;6.08;73.72;94851.00;4191978;28;20283;-53
2023/03/02 02:49:24;;;;;;;3.33;2.00;;;;;;;6.13;74.20;94849.69;4197760;28;19924;-57
2023/03/02 02:51:28;;;;;;;3.35;2.10;;;;;;;6.20;73.75;94838.75;4206702;28;20118;-54
2023/03/02 02:53:47;;;;;;;3.58;2.38;;;;;;;6.20;73.69;94841.38;4196560;28;20060;-54
2023/03/02 02:55:50;;;;;;;3.45;2.30;;;;;;;6.23;73.08;94833.28;4215025;28;20044;-51
2023/03/02 02:57:53;;;;;;;;;;;;;;;6.20;72.87;94841.38;4214106;28;20044;-51
2023/03/02 02:59:57;;;;;;;5.72;2.10;;;;;;;6.14;72.94;94835.69;4202243;28;19927;-54
2023/03/02 03:02:02;;;;;;;3.40;2.30;;;;;;;6.10;73.59;94839.50;4181737;28;20041;-54
2023/03/02 03:04:04;;;;;;;3.47;2.20;;;;;;;6.05;73.28;94839.09;4186201;28;20462;-54
2023/03/02 03:06:08;;;;;;;3.00;2.15;;;;;;;6.01;74.02;94845.50;4188544;28;20473;-55
2023/03/02 03:08:38;;;;;;;3.25;2.40;;;;;;;6.06;73.92;94840.72;4207523;28;20582;-52
2023/03/02 03:10:42;;;;;;;3.95;2.63;;;;;;;6.09;73.71;94837.06;4214744;28;20048;-52
2023/03/02 03:12:45;;;;;;;3.80;2.23;;;;;;;6.09;73.56;94842.25;4203616;28;20136;-51
2023/03/02 03:14:47;;;;;;;8.05;5.03;;;;;;;6.05;73.31;94835.66;4211940;28;20047;-54
2023/03/02 03:16:49;;;;;;;6.28;3.33;;;;;;;6.05;73.97;94833.06;4211064;28;20074;-54
2023/03/02 03:18:51;;;;;;;2.75;2.10;;;;;;;6.09;73.54;94834.47;4212456;28;20097;-53
2023/03/02 03:20:53;;;;;;;3.53;2.35;;;;;;;6.06;73.25;94829.50;4199199;28;20044;-54
2023/03/02 03:22:58;;;;;;;3.35;2.47;;;;;;;6.01;73.70;94829.88;4209958;28;20064;-53
2023/03/02 03:25:00;;;;;;;3.42;2.40;;;;;;;5.98;73.57;94837.94;4191809;28;20083;-52
2023/03/02 03:27:04;;;;;;;5.15;2.65;;;;;;;5.92;73.41;94830.63;4212437;28;20048;-50
2023/03/02 03:29:06;;;;;;;3.78;2.40;;;;;;;5.93;73.95;94834.88;4211141;28;20059;-53
2023/03/02 03:31:08;;;;;;;6.03;2.40;;;;;;;5.98;74.04;94827.56;4207848;28;20510;-50
2023/03/02 03:33:12;;;;;;;4.20;2.78;;;;;;;6.04;73.80;94834.00;4204506;28;20055;-51
2023/03/02 03:35:14;;;;;;;3.95;2.40;;;;;;;6.09;73.46;94832.69;4204853;28;20059;-56
2023/03/02 03:37:18;;;;;;;3.90;2.50;;;;;;;6.12;73.25;94837.59;4211611;28;20128;-54
2023/03/02 03:39:19;;;;;;;;;;;;;;;6.12;73.29;94837.59;4207087;28;20097;-53
2023/03/02 03:41:21;;;;;;;6.00;2.45;;;;;;;6.10;73.17;94833.50;4214469;28;19924;-53
2023/03/02 03:43:23;;;;;;;3.35;2.28;;;;;;;6.17;72.77;94826.00;4212938;28;20723;-51
2023/03/02 03:45:25;;;;;;;3.88;2.38;;;;;;;6.25;72.71;94839.19;4214566;28;20504;-53
2023/03/02 03:47:28;;;;;;;4.32;2.30;;;;;;;6.26;72.47;94827.81;4211411;28;20050;-49
2023/03/02 03:49:30;;;;;;;3.38;2.25;;;;;;;6.26;72.69;94833.88;4200251;28;20053;-51
2023/03/02 03:51:34;;;;;;;3.92;2.28;;;;;;;6.30;72.80;94837.00;4209877;28;20495;-51
2023/03/02 03:53:36;;;;;;;3.45;2.20;;;;;;;6.38;72.54;94834.59;4189839;28;20127;-51
2023/03/02 03:55:37;;;;;;;4.00;2.67;;;;;;;6.40;72.00;94830.09;4181568;28;20052;-52
2023/03/02 03:57:39;;;;;;;3.13;2.28;;;;;;;6.40;71.91;94830.09;4181169;28;20049;-50
2023/03/02 03:59:41;;;;;;;3.83;2.65;;;;;;;6.35;72.05;94834.88;4181409;28;20483;-52
2023/03/02 04:01:51;;;;;;;4.85;2.83;;;;;;;6.32;72.71;94837.72;4181254;28;20485;-52
2023/03/02 04:03:53;;;;;;;4.80;2.50;;;;;;;6.31;72.50;94841.28;4193367;28;20044;-54
2023/03/02 04:05:54;;;;;;;4.75;2.58;;;;;;;6.35;72.37;94840.06;4194066;28;20207;-53
2023/03/02 04:07:58;;;;;;;3.90;2.63;;;;;;;6.35;72.70;94833.06;4186209;28;20060;-51
2023/03/02 04:10:02;;;;;;;4.28;2.83;;;;;;;6.35;72.23;94835.69;4207897;28;20411;-53
2023/03/02 04:12:05;;;;;;;4.93;2.70;;;;;;;6.30;72.41;94840.47;4189518;28;20483;-54
2023/03/02 04:14:07;;;;;;;3.65;2.65;;;;;;;6.22;72.90;94839.47;4193003;28;20049;-52
2023/03/02 04:16:09;;;;;;;3.67;2.63;;;;;;;6.19;73.25;94834.50;4190704;28;20052;-51
2023/03/02 04:18:16;;;;;;;4.95;2.90;;;;;;;6.09;73.63;94832.69;4184458;28;20131;-53
2023/03/02 04:20:18;;;;;;;3.90;2.40;;;;;;;6.01;74.14;94829.88;4183563;28;20045;-53
2023/03/02 04:22:35;;;;;;;3.55;2.10;;;;;;;6.03;74.07;94832.38;4195560;28;20122;-56
2023/03/02 04:24:37;;;;;;;3.72;2.58;;;;;;;5.98;74.10;94826.72;4194744;28;20052;-53
2023/03/02 04:26:40;;;;;;;3.28;2.30;;;;;;;5.89;74.71;94828.25;4213911;28;20500;-54
2023/03/02 04:28:42;;;;;;;2.63;1.92;;;;;;;5.95;75.26;94833.81;4213513;28;20512;-51
2023/03/02 04:30:43;;;;;;;3.20;2.05;;;;;;;5.97;74.88;94825.88;4213301;28;20048;-53
2023/03/02 04:32:45;;;;;;;4.18;2.22;;;;;;;5.99;74.29;94834.38;4210484;28;20486;-50
2023/03/02 04:34:47;;;;;;;3.47;2.40;;;;;;;5.93;74.70;94832.25;4191893;28;20388;-53
2023/03/02 04:36:48;;;;;;;2.30;1.90;;;;;;;5.93;75.03;94837.47;4181335;28;20073;-55
2023/03/02 04:38:50;;;;;;;3.40;2.20;;;;;;;5.84;75.43;94835.63;4184048;28;20048;-52
2023/03/02 04:40:52;;;;;;;2.83;2.28;;;;;;;5.90;75.68;94845.53;4180317;28;20048;-53
2023/03/02 04:42:54;;;;;;;3.35;2.50;;;;;;;5.99;75.26;94843.97;4180207;28;20060;-54
2023/03/02 04:44:55;;;;;;;3.83;2.60;;;;;;;6.02;74.84;94852.31;4205149;28;20083;-52
2023/03/02 04:46:57;;;;;;;3.17;2.65;;;;;;;6.06;74.89;94847.69;4201779;28;20052;-52
2023/03/02 04:48:59;;;;;;;3.80;2.78;;;;;;;6.04;74.95;94849.59;4211705;28;20076;-48
2023/03/02 04:51:01;;;;;;;3.50;2.92;;;;;;;6.01;75.15;94855.88;4213415;28;20052;-54
2023/03/02 04:53:03;;;;;;;3.90;3.25;;;;;;;6.04;75.66;94858.22;4211854;28;20098;-50
2023/03/02 04:55:05;;;;;;;5.50;2.70;;;;;;;6.08;75.60;94858.81;4213002;28;20048;-51
2023/03/02 04:57:07;;;;;;;3.38;2.78;;;;;;;6.05;75.43;94854.69;4203657;28;20540;-53
2023/03/02 04:59:09;;;;;;;3.80;2.97;;;;;;;6.07;75.60;94854.56;4183855;28;20053;-52
2023/03/02 05:01:12;;;;;;;5.93;3.22;;;;;;;6.09;75.70;94856.09;4183884;28;20044;-56
2023/03/02 05:03:13;;;;;;;4.37;3.27;;;;;;;6.10;75.52;94855.13;4189640;28;20110;-55
2023/03/02 05:05:17;;;;;;;4.93;3.70;;;;;;;6.17;75.80;94845.03;4191545;28;20639;-54
2023/03/02 05:07:19;;;;;;;;;;;;;;;6.24;75.66;94851.38;4184324;28;20730;-56
2023/03/02 05:09:25;;;;;;;4.68;3.72;;;;;;;6.32;75.18;94848.97;4192411;28;19920;-56
2023/03/02 05:11:27;;;;;;;4.80;3.67;;;;;;;6.35;75.33;94847.88;4189601;28;20537;-54
2023/03/02 05:13:29;;;;;;;4.85;3.63;;;;;;;6.32;75.16;94846.34;4196899;28;20049;-54
2023/03/02 05:15:37;;;;;;;4.78;4.22;;;;;;;6.28;75.35;94857.97;4182033;28;20552;-57
2023/03/02 05:17:38;;;;;;;5.03;4.15;;;;;;;6.27;75.66;94848.50;4184862;28;20164;-55
2023/03/02 05:19:40;;;;;;;4.68;4.07;;;;;;;6.15;75.33;94850.38;4196518;28;20123;-53
2023/03/02 05:21:44;;;;;;;6.05;4.60;;;;;;;6.15;75.20;94857.34;4182515;28;20435;-51
2023/03/02 05:23:46;;;;;;;5.20;4.07;;;;;;;6.17;75.11;94852.00;4186231;28;20048;-57
2023/03/02 05:25:53;;;;;;;4.47;3.83;;;;;;;6.20;75.62;94854.38;4196083;28;20136;-53
2023/03/02 05:27:55;;;;;;;5.30;4.03;;;;;;;6.22;75.37;94857.66;4181255;28;20064;-60
2023/03/02 05:29:57;;;;;;;6.18;4.28;;;;;;;6.20;75.18;94855.19;4180163;28;20060;-59
2023/03/02 05:31:58;;;;;;;6.25;4.20;;;;;;;6.18;74.90;94864.06;4179869;28;20103;-59
2023/03/02 05:34:01;;;;;;;5.10;3.85;;;;;;;6.24;75.60;94866.13;4191037;28;20123;-57
2023/03/02 05:36:03;;;;;;;6.35;4.57;;;;;;;6.27;75.34;94864.13;4211671;28;20130;-59
2023/03/02 05:38:05;;;;;;;5.43;4.57;;;;;;;6.33;74.91;94865.38;4194231;28;20059;-58
2023/03/02 05:40:08;;;;;;;4.93;4.40;;;;;;;6.31;74.55;94868.09;4196552;28;20076;-53
2023/03/02 05:42:10;;;;;;;5.55;4.53;;;;;;;6.35;74.67;94873.91;4199062;28;20436;-53
2023/03/02 05:44:11;;;;;;;6.00;4.57;;;;;;;6.41;74.67;94869.94;4192610;28;20127;-58
2023/03/02 05:46:13;;;;;;;7.32;4.22;;;;;;;6.49;74.96;94867.50;4198568;28;20048;-61
2023/03/02 05:48:15;;;;;;;5.05;4.32;;;;;;;6.56;74.65;94866.06;4196636;28;20056;-57
2023/03/02 05:50:20;;;;;;;7.10;5.05;;;;;;;6.49;74.29;94860.53;4198361;28;20044;-59
2023/03/02 05:52:22;;;;;;;6.00;4.85;;;;;;;6.49;74.27;94872.72;4208354;28;20403;-60
2023/03/02 05:54:24;;;;;;;5.93;4.88;;;;;;;6.46;74.45;94871.19;4196151;28;20080;-59
2023/03/02 05:56:25;;;;;;;9.02;5.90;;;;;;;6.48;74.94;94868.47;4205520;28;20125;-60
2023/03/02 05:58:27;;;;;;;7.20;4.90;;;;;;;6.47;74.64;94865.03;4196932;28;20503;-61
2023/03/02 06:00:29;;;;;;;7.97;5.32;;;;;;;6.38;74.57;94865.00;4197274;28;20053;-60
2023/03/02 06:02:31;;;;;;;9.30;5.53;;;;;;;6.30;74.34;94866.47;4192923;28;20057;-58
2023/03/02 06:04:32;;;;;;;7.85;6.25;;;;;;;6.29;74.74;94866.59;4198185;28;20043;-56
2023/03/02 06:06:34;;;;;;;6.57;5.70;;;;;;;6.29;75.10;94872.63;4193147;28;20082;-56
2023/03/02 06:08:39;;;;;;;8.75;5.85;;;;;;;6.29;75.08;94875.22;4190822;28;20604;-57
2023/03/02 06:10:41;;;;;;;7.22;5.22;;;;;;;6.33;74.98;94874.00;4200309;28;20053;-60
2023/03/02 06:12:43;;;;;;;6.50;5.53;;;;;;;6.30;74.88;94881.25;4195149;28;20101;-59
2023/03/02 06:14:45;;;;;;;6.75;5.38;;;;;;;6.28;74.36;94877.94;4196930;28;20068;-59
2023/03/02 06:16:47;;;;;;;7.55;5.32;;;;;;;6.30;74.80;94876.88;4201567;28;20087;-57
2023/03/02 06:18:49;;;;;;;7.13;5.70;;;;;;;6.23;75.00;94885.31;4197749;28;20066;-61
2023/03/02 06:20:51;;;;;;;8.20;6.30;;;;;;;6.14;74.98;94890.31;4199123;28;20040;-60
2023/03/02 06:22:53;;;;;;;6.53;5.65;;;;;;;6.12;75.45;94887.03;4191296;28;20052;-61
2023/03/02 06:24:54;;;;;;;7.15;5.72;;;;;;;6.09;75.00;94891.69;4198113;28;20051;-61
2023/03/02 06:26:56;;;;;;;6.00;5.32;;;;;;;6.04;75.08;94888.63;4211910;28;20048;-59
2023/03/02 06:28:58;;;;;;;7.60;5.75;;;;;;;6.07;75.49;94891.78;4211492;28;20097;-61
2023/03/02 06:31:05;;;;;;;8.73;5.88;;;;;;;6.15;75.83;94892.00;4211833;28;20075;-59
2023/03/02 06:33:07;;;;;;;7.55;5.68;;;;;;;6.26;75.58;94895.44;4206194;28;20052;-60
2023/03/02 06:35:09;;;;;;;8.52;5.55;;;;;;;6.34;75.55;94893.88;4196061;28;20056;-59
2023/03/02 06:37:11;;;;;;;7.20;5.97;;;;;;;6.40;74.49;94896.91;4195083;28;20588;-60
2023/03/02 06:39:16;;;;;;;6.72;5.45;;;;;;;6.44;74.50;94900.91;4192988;28;20143;-61
2023/03/02 06:41:18;;;;;;;9.10;5.95;;;;;;;6.53;74.99;94892.31;4179120;28;20049;-59
2023/03/02 06:43:19;;;;;;;8.27;5.88;;;;;;;6.59;74.43;94885.78;4188385;28;20132;-57
2023/03/02 06:45:21;;;;;;;6.55;5.82;;;;;;;6.64;74.45;94886.22;4182678;28;20080;-59
2023/03/02 06:47:23;;;;;;;7.63;6.00;;;;;;;6.58;73.54;94890.16;4191089;28;20059;-60
2023/03/02 06:49:25;;;;;;;9.00;6.63;;;;;;;6.46;73.55;94891.22;4185768;28;20040;-59
2023/03/02 06:51:26;;;;;;;10.20;6.78;;;;;;;6.35;74.58;94887.72;4185519;28;20053;-58
2023/03/02 06:53:31;;;;;;;10.57;7.45;;;;;;;6.33;75.10;94886.22;4193531;28;20091;-59
2023/03/02 06:55:32;;;;;;;8.00;7.07;;;;;;;6.26;74.67;94891.09;4191575;28;20297;-59
2023/03/02 06:57:34;;;;;;;11.90;7.40;;;;;;;6.27;75.04;94891.91;4179216;28;20510;-61
2023/03/02 06:59:36;;;;;;;8.75;7.50;;;;;;;6.21;74.61;94888.03;4190204;28;20118;-59
2023/03/02 07:01:37;;;;;;;6.97;6.22;;;;;;;6.27;74.96;94892.72;4180979;28;20048;-59
2023/03/02 07:03:39;;;;;;;10.05;7.07;;;;;;;6.34;75.31;94887.84;4178329;28;20419;-58
2023/03/02 07:05:44;;;;;;;9.27;7.05;;;;;;;6.33;75.30;94891.41;4179629;28;20094;-58
2023/03/02 07:07:47;;;;;;;8.68;7.35;;;;;;;6.31;75.14;94890.72;4190982;28;20052;-60
2023/03/02 07:09:48;;;;;;;8.90;6.90;;;;;;;6.26;74.83;94882.44;4182866;28;20495;-59
2023/03/02 07:11:50;;;;;;;9.93;7.35;;;;;;;6.28;75.37;94885.75;4192738;28;20634;-58
2023/03/02 07:13:51;;;;;;;9.27;7.28;;;;;;;6.36;75.75;94884.16;4177475;28;20049;-62
2023/03/02 07:15:53;;;;;;;9.18;7.50;;;;;;;6.49;74.92;94883.94;4205526;28;20056;-60
2023/03/02 07:17:55;;;;;;;10.52;7.47;;;;;;;6.52;74.49;94886.31;4210128;28;20113;-60
2023/03/02 07:20:04;;;;;;;9.57;7.45;;;;;;;6.50;74.34;94888.22;4212579;28;20044;-59
2023/03/02 07:22:06;;;;;;;9.50;7.35;;;;;;;6.48;74.06;94889.31;4213906;28;20082;-60
2023/03/02 07:24:08;;;;;;;9.27;7.43;;;;;;;6.40;74.20;94882.13;4204159;28;20048;-60
2023/03/02 07:26:09;;;;;;;10.15;7.28;;;;;;;6.32;74.02;94893.19;4184599;28;20057;-60
2023/03/02 07:28:11;;;;;;;10.18;7.50;;;;;;;6.35;74.57;94882.50;4194885;28;20057;-59
2023/03/02 07:30:14;;;;;;;9.43;7.32;;;;;;;6.49;74.60;94883.94;4189045;28;20135;-61
2023/03/02 07:32:15;;;;;;;13.35;7.88;;;;;;;6.59;74.01;94885.78;4197670;28;20098;-60
2023/03/02 07:34:17;;;;;;;8.38;6.55;;;;;;;6.57;73.45;94889.34;4197583;28;20504;-58
2023/03/02 07:36:18;;;;;;;8.35;6.50;;;;;;;6.62;73.78;94895.94;4201886;28;20044;-61
2023/03/02 07:38:20;;;;;;;11.10;7.45;;;;;;;6.70;73.57;94883.09;4212638;28;20052;-58
2023/03/02 07:40:22;;;;;;;13.27;8.73;;;;;;;6.76;73.74;94903.41;4199851;28;20067;-60
2023/03/02 07:42:23;;;;;;;8.63;6.60;;;;;;;6.64;73.36;94892.25;4199474;28;20141;-62
2023/03/02 07:44:26;;;;;;;10.82;6.43;;;;;;;6.61;73.82;94899.50;4197422;28;20435;-57
2023/03/02 07:46:27;;;;;;;9.30;6.45;;;;;;;6.61;73.75;94899.50;4198573;28;20142;-55
2023/03/02 07:48:30;;;;;;;8.13;5.88;;;;;;;6.68;73.85;94892.81;4198407;28;20045;-55
2023/03/02 07:50:32;;;;;;;9.57;7.13;;;;;;;6.65;73.74;94895.69;4192749;28;20099;-54
2023/03/02 07:52:33;;;;;;;8.65;6.45;;;;;;;6.69;73.52;94899.66;4207298;28;20477;-56
2023/03/02 07:54:35;;;;;;;11.90;7.68;;;;;;;6.73;73.35;94894.06;4202508;28;20066;-58
2023/03/02 07:56:37;;;;;;;8.70;6.78;;;;;;;6.79;73.48;94900.53;4195205;28;20072;-57
2023/03/02 07:58:42;;;;;;;8.52;6.70;;;;;;;6.85;73.96;94899.19;4207141;28;20044;-56
2023/03/02 08:00:43;;;;;;;8.27;5.95;;;;;;;6.93;73.69;94888.94;4200283;28;20082;-55
2023/03/02 08:02:45;;;;;;;10.85;6.97;;;;;;;6.90;72.94;94889.19;4193694;28;20052;-54
2023/03/02 08:04:47;;;;;;;8.63;7.00;;;;;;;6.93;73.03;94894.16;4197041;28;20502;-53
2023/03/02 08:06:48;;;;;;;9.20;6.38;;;;;;;6.86;72.76;94898.22;4199594;28;20123;-60
2023/03/02 08:08:50;;;;;;;10.25;6.85;;;;;;;6.93;73.06;94887.16;4204553;28;20055;-54
2023/03/02 08:10:52;;;;;;;11.98;7.47;;;;;;;7.04;73.43;94885.41;4199084;28;20115;-55
2023/03/02 08:12:53;;;;;;;9.73;7.63;;;;;;;7.10;73.02;94888.31;4195774;28;20050;-55
2023/03/02 08:14:55;;;;;;;8.20;6.40;;;;;;;7.01;72.64;94889.09;4201736;28;20059;-58
2023/03/02 08:17:06;;;;;;;11.65;7.57;;;;;;;7.07;73.12;94887.75;4205255;28;20052;-56
2023/03/02 08:19:08;;;;;;;9.77;6.53;;;;;;;7.13;72.97;94884.59;4200534;28;20117;-56
2023/03/02 08:21:11;;;;;;;10.98;6.88;;;;;;;7.08;71.80;94887.63;4187526;28;20494;-52
2023/03/02 08:23:13;;;;;;;;;;;;;;;7.03;72.90;94881.13;4198348;28;20113;-53
2023/03/02 08:25:15;;;;;;;8.88;6.78;;;;;;;7.09;72.92;94878.00;4203466;28;19927;-55
2023/03/02 08:27:16;;;;;;;10.32;6.43;;;;;;;7.03;72.86;94884.56;4213856;28;20101;-60
2023/03/02 08:29:18;;;;;;;10.88;7.15;;;;;;;7.00;73.20;94876.22;4213508;28;20140;-61
2023/03/02 08:31:20;;;;;;;39.38;23.25;;;;;;;6.96;73.44;94883.47;4211594;28;20075;-59
2023/03/02 08:33:22;;;;;;;9.18;7.10;;;;;;;7.02;73.22;94874.31;4205491;28;20040;-61
2023/03/02 08:35:24;;;;;;;9.80;6.55;;;;;;;7.11;73.36;94868.28;4207465;28;20516;-60
2023/03/02 08:37:25;;;;;;;10.82;6.68;;;;;;;7.13;73.47;94876.78;4212338;28;20048;-59
2023/03/02 08:39:29;;;;;;;11.25;7.15;;;;;;;7.24;73.19;94879.28;4200873;28;20044;-60
2023/03/02 08:41:30;;;;;;;9.93;6.65;;;;;;;7.33;72.46;94880.25;4213179;28;20052;-62
2023/03/02 08:43:33;;;;;;;8.75;6.35;;;;;;;7.06;72.65;94875.69;4212556;28;20040;-60
2023/03/02 08:45:35;;;;;;;8.98;6.10;;;;;;;6.96;73.60;94867.81;4206143;28;20079;-57
2023/03/02 08:47:36;;;;;;;7.47;5.93;;;;;;;6.82;73.19;94876.00;4196967;28;20064;-62
2023/03/02 08:49:38;;;;;;;7.63;5.70;;;;;;;6.79;72.96;94881.47;4211467;28;20079;-59
2023/03/02 08:51:40;;;;;;;9.45;5.85;;;;;;;6.70;73.71;94880.50;4213108;28;20436;-59
2023/03/02 08:53:44;;;;;;;9.40;6.47;;;;;;;6.72;73.80;94870.78;4213603;28;20075;-61
2023/03/02 08:55:45;;;;;;;;;;;;;;;6.77;74.21;94873.78;4201541;28;20049;-61
2023/03/02 08:57:47;;;;;;;8.98;6.85;;;;;;;6.94;74.24;94875.75;4211873;28;20289;-60
2023/03/02 08:59:51;;;;;;;10.55;6.85;;;;;;;7.12;74.05;94877.72;4213444;28;20502;-60
2023/03/02 09:01:52;;;;;;;10.18;6.25;;;;;;;7.24;73.24;94870.63;4213218;28;20036;-61
2023/03/02 09:03:56;;;;;;;9.10;7.45;;;;;;;7.39;73.59;94871.91;4212327;28;20414;-59
2023/03/02 09:05:58;;;;;;;8.75;7.00;;;;;;;7.49;72.41;94869.31;4187430;28;20398;-59
2023/03/02 09:07:59;;;;;;;10.18;7.57;;;;;;;7.38;72.00;94868.47;4205480;28;20162;-59
2023/03/02 09:10:01;;;;;;;9.63;6.72;;;;;;;7.17;73.07;94862.53;4207246;28;20075;-62
2023/03/02 09:12:03;;;;;;;8.93;6.90;;;;;;;7.10;73.29;94858.84;4197865;28;20139;-61
2023/03/02 09:14:04;;;;;;;8.48;6.88;;;;;;;7.18;73.72;94861.56;4213364;28;20090;-60
2023/03/02 09:16:07;;;;;;;9.93;6.93;;;;;;;7.16;74.13;94859.13;4213615;28;20056;-61
2023/03/02 09:18:09;;;;;;;11.50;8.82;;;;;;;7.20;73.81;94859.66;4212047;28;20060;-61
2023/03/02 09:20:10;;;;;;;9.57;7.28;;;;;;;7.18;74.20;94866.78;4184123;28;20060;-61
2023/03/02 09:22:12;;;;;;;10.15;7.88;;;;;;;7.28;74.06;94872.03;4179740;28;20152;-62
2023/03/02 09:24:14;;;;;;;10.23;7.93;;;;;;;7.48;73.97;94870.25;4190690;28;20056;-65
2023/03/02 09:26:16;;;;;;;14.90;9.50;;;;;;;7.70;73.04;94854.38;4195459;28;20058;-61
2023/03/02 09:28:18;;;;;;;10.60;8.40;;;;;;;7.90;73.19;94857.78;4179932;28;20048;-61
2023/03/02 09:30:22;;;;;;;10.77;8.20;;;;;;;7.98;72.51;94857.91;4188135;28;20585;-61
2023/03/02 09:32:24;;;;;;;10.10;7.60;;;;;;;8.07;72.32;94853.63;4195239;28;20108;-61
2023/03/02 09:34:26;;;;;;;11.02;7.90;;;;;;;7.94;71.80;94850.50;4195134;28;20056;-62
2023/03/02 09:36:27;;;;;;;10.48;7.60;;;;;;;7.77;72.58;94852.84;4190119;28;20140;-61
2023/03/02 09:38:29;;;;;;;8.90;7.47;;;;;;;7.53;72.90;94855.88;4202540;28;20064;-60
2023/03/02 09:40:32;;;;;;;8.77;7.35;;;;;;;7.53;72.95;94855.06;4202556;28;20053;-63
2023/03/02 09:43:20;;;;;;;9.57;7.55;;;;;;;7.71;73.17;94853.38;4188241;28;20084;-62
2023/03/02 09:45:36;;;;;;;8.48;6.95;;;;;;;7.70;71.78;94864.78;4179847;28;20045;-62
2023/03/02 09:47:44;;;;;;;9.02;6.47;;;;;;;7.72;72.48;94854.22;4183094;28;20057;-59
2023/03/02 09:50:09;;;;;;;7.13;6.07;;;;;;;7.68;72.63;94856.28;4195785;28;20052;-59